sensor_id;sensor_type;location;lat;lon;timestamp;temperature;humidity
52187;DHT22;38161;53.020;6.598;2023-02-28T00:00:52;3.20;99.90
52187;DHT22;38161;53.020;6.598;2023-02-28T00:03:18;3.20;99.90
52187;DHT22;38161;53.020;6.598;2023-02-28T00:05:44;3.20;99.90
52187;DHT22;38161;53.020;6.598;2023-02-28T00:08:10;3.20;99.90
52187;DHT22;38161;53.020;6.598;2023-02-28T00:10:35;3.40;99.90
52187;DHT22;38161;53.020;6.598;2023-02-28T00:13:05;3.20;99.90
52187;DHT22;38161;53.020;6.598;2023-02-28T00:15:32;3.20;99.90
52187;DHT22;38161;53.020;6.598;2023-02-28T00:17:57;3.20;99.90
52187;DHT22;38161;53.020;6.598;2023-02-28T00:20:24;3.20;99.90
52187;DHT22;38161;53.020;6.598;2023-02-28T00:22:50;3.10;99.90
52187;DHT22;38161;53.020;6.598;2023-02-28T00:25:20;3.10;99.90
52187;DHT22;38161;53.020;6.598;2023-02-28T00:27:47;3.10;99.90
52187;DHT22;38161;53.020;6.598;2023-02-28T00:30:18;3.20;99.90
52187;DHT22;38161;53.020;6.598;2023-02-28T00:32:45;3.20;99.90
52187;DHT22;38161;53.020;6.598;2023-02-28T00:35:11;3.20;99.90
52187;DHT22;38161;53.020;6.598;2023-02-28T00:37:37;3.20;99.90
52187;DHT22;38161;53.020;6.598;2023-02-28T00:40:04;3.20;99.90
52187;DHT22;38161;53.020;6.598;2023-02-28T00:42:35;3.20;99.90
52187;DHT22;38161;53.020;6.598;2023-02-28T00:45:02;3.20;99.90
52187;DHT22;38161;53.020;6.598;2023-02-28T00:47:29;3.20;99.90
52187;DHT22;38161;53.020;6.598;2023-02-28T00:49:55;3.20;99.90
52187;DHT22;38161;53.020;6.598;2023-02-28T00:52:21;3.20;99.90
52187;DHT22;38161;53.020;6.598;2023-02-28T00:54:47;3.20;99.90
52187;DHT22;38161;53.020;6.598;2023-02-28T00:57:12;3.20;99.90
52187;DHT22;38161;53.020;6.598;2023-02-28T00:59:38;3.20;99.90
52187;DHT22;38161;53.020;6.598;2023-02-28T01:02:04;3.20;99.90
52187;DHT22;38161;53.020;6.598;2023-02-28T01:04:30;3.20;99.90
52187;DHT22;38161;53.020;6.598;2023-02-28T01:06:56;3.20;99.90
52187;DHT22;38161;53.020;6.598;2023-02-28T01:09:21;3.20;99.90
52187;DHT22;38161;53.020;6.598;2023-02-28T01:11:47;3.20;99.90
52187;DHT22;38161;53.020;6.598;2023-02-28T01:14:15;3.30;99.90
52187;DHT22;38161;53.020;6.598;2023-02-28T01:16:42;3.20;99.90
52187;DHT22;38161;53.020;6.598;2023-02-28T01:19:07;3.30;99.90
52187;DHT22;38161;53.020;6.598;2023-02-28T01:21:33;3.40;99.90
52187;DHT22;38161;53.020;6.598;2023-02-28T01:24:01;3.20;99.90
52187;DHT22;38161;53.020;6.598;2023-02-28T01:26:26;3.20;99.90
52187;DHT22;38161;53.020;6.598;2023-02-28T01:28:53;3.30;99.90
52187;DHT22;38161;53.020;6.598;2023-02-28T01:31:19;3.20;99.90
52187;DHT22;38161;53.020;6.598;2023-02-28T01:33:45;3.40;99.90
52187;DHT22;38161;53.020;6.598;2023-02-28T01:38:42;3.20;99.90
52187;DHT22;38161;53.020;6.598;2023-02-28T01:41:09;3.20;99.90
52187;DHT22;38161;53.020;6.598;2023-02-28T01:46:10;3.20;99.90
52187;DHT22;38161;53.020;6.598;2023-02-28T01:48:39;3.20;99.90
52187;DHT22;38161;53.020;6.598;2023-02-28T01:51:13;3.20;99.90
52187;DHT22;38161;53.020;6.598;2023-02-28T01:53:47;3.30;99.90
52187;DHT22;38161;53.020;6.598;2023-02-28T01:56:19;3.20;99.90
52187;DHT22;38161;53.020;6.598;2023-02-28T01:58:50;3.30;99.90
52187;DHT22;38161;53.020;6.598;2023-02-28T02:01:16;3.20;99.90
52187;DHT22;38161;53.020;6.598;2023-02-28T02:03:52;3.30;99.90
52187;DHT22;38161;53.020;6.598;2023-02-28T02:06:51;3.30;99.90
52187;DHT22;38161;53.020;6.598;2023-02-28T02:09:17;3.20;99.90
52187;DHT22;38161;53.020;6.598;2023-02-28T02:11:45;3.20;99.90
52187;DHT22;38161;53.020;6.598;2023-02-28T02:14:20;3.20;99.90
52187;DHT22;38161;53.020;6.598;2023-02-28T02:19:35;3.20;99.90
52187;DHT22;38161;53.020;6.598;2023-02-28T02:25:19;3.20;99.90
52187;DHT22;38161;53.020;6.598;2023-02-28T02:28:34;3.20;99.90
52187;DHT22;38161;53.020;6.598;2023-02-28T02:37:03;3.20;99.90
52187;DHT22;38161;53.020;6.598;2023-02-28T02:42:24;3.20;99.90
52187;DHT22;38161;53.020;6.598;2023-02-28T02:44:59;3.20;99.90
52187;DHT22;38161;53.020;6.598;2023-02-28T02:47:29;3.20;99.90
52187;DHT22;38161;53.020;6.598;2023-02-28T02:49:58;3.20;99.90
52187;DHT22;38161;53.020;6.598;2023-02-28T02:52:34;3.20;99.90
52187;DHT22;38161;53.020;6.598;2023-02-28T02:55:02;3.20;99.90
52187;DHT22;38161;53.020;6.598;2023-02-28T02:57:52;3.20;99.90
52187;DHT22;38161;53.020;6.598;2023-02-28T03:00:23;3.20;99.90
52187;DHT22;38161;53.020;6.598;2023-02-28T03:02:52;3.20;99.90
52187;DHT22;38161;53.020;6.598;2023-02-28T03:05:28;3.20;99.90
52187;DHT22;38161;53.020;6.598;2023-02-28T03:07:55;3.20;99.90
52187;DHT22;38161;53.020;6.598;2023-02-28T03:10:28;3.20;99.90
52187;DHT22;38161;53.020;6.598;2023-02-28T03:13:19;3.20;99.90
52187;DHT22;38161;53.020;6.598;2023-02-28T03:26:46;3.00;99.90
52187;DHT22;38161;53.020;6.598;2023-02-28T03:29:24;3.00;99.90
52187;DHT22;38161;53.020;6.598;2023-02-28T03:34:33;2.90;99.90
52187;DHT22;38161;53.020;6.598;2023-02-28T03:37:04;2.90;99.90
52187;DHT22;38161;53.020;6.598;2023-02-28T03:39:36;2.90;99.90
52187;DHT22;38161;53.020;6.598;2023-02-28T03:42:15;2.90;99.90
52187;DHT22;38161;53.020;6.598;2023-02-28T03:44:47;2.80;99.90
52187;DHT22;38161;53.020;6.598;2023-02-28T03:47:19;2.80;99.90
52187;DHT22;38161;53.020;6.598;2023-02-28T03:49:50;2.70;99.90
52187;DHT22;38161;53.020;6.598;2023-02-28T03:52:22;2.70;99.90
52187;DHT22;38161;53.020;6.598;2023-02-28T03:54:53;2.70;99.90
52187;DHT22;38161;53.020;6.598;2023-02-28T03:57:27;2.70;99.90
52187;DHT22;38161;53.020;6.598;2023-02-28T04:00:07;2.70;99.90
52187;DHT22;38161;53.020;6.598;2023-02-28T04:02:35;2.60;99.90
52187;DHT22;38161;53.020;6.598;2023-02-28T04:05:01;2.60;99.90
52187;DHT22;38161;53.020;6.598;2023-02-28T04:07:31;2.60;99.90
52187;DHT22;38161;53.020;6.598;2023-02-28T04:09:57;2.60;99.90
52187;DHT22;38161;53.020;6.598;2023-02-28T04:12:24;2.60;99.90
52187;DHT22;38161;53.020;6.598;2023-02-28T04:14:50;2.60;99.90
52187;DHT22;38161;53.020;6.598;2023-02-28T04:17:16;2.70;99.90
52187;DHT22;38161;53.020;6.598;2023-02-28T04:19:42;2.60;99.90
52187;DHT22;38161;53.020;6.598;2023-02-28T04:22:09;2.60;99.90
52187;DHT22;38161;53.020;6.598;2023-02-28T04:24:35;2.60;99.90
52187;DHT22;38161;53.020;6.598;2023-02-28T04:27:01;2.60;99.90
52187;DHT22;38161;53.020;6.598;2023-02-28T04:29:30;2.60;99.90
52187;DHT22;38161;53.020;6.598;2023-02-28T04:31:58;2.90;99.90
52187;DHT22;38161;53.020;6.598;2023-02-28T04:34:28;2.50;99.90
52187;DHT22;38161;53.020;6.598;2023-02-28T04:36:55;2.50;99.90
52187;DHT22;38161;53.020;6.598;2023-02-28T04:39:22;2.50;99.90
52187;DHT22;38161;53.020;6.598;2023-02-28T04:41:48;2.50;99.90
52187;DHT22;38161;53.020;6.598;2023-02-28T04:44:14;2.50;99.90
52187;DHT22;38161;53.020;6.598;2023-02-28T04:46:40;2.60;99.90
52187;DHT22;38161;53.020;6.598;2023-02-28T04:49:06;2.50;99.90
52187;DHT22;38161;53.020;6.598;2023-02-28T04:51:32;2.50;99.90
52187;DHT22;38161;53.020;6.598;2023-02-28T04:53:57;2.50;99.90
52187;DHT22;38161;53.020;6.598;2023-02-28T04:56:23;2.50;99.90
52187;DHT22;38161;53.020;6.598;2023-02-28T04:58:49;2.40;99.90
52187;DHT22;38161;53.020;6.598;2023-02-28T05:01:21;2.40;99.90
52187;DHT22;38161;53.020;6.598;2023-02-28T05:03:47;2.40;99.90
52187;DHT22;38161;53.020;6.598;2023-02-28T05:06:13;2.40;99.90
52187;DHT22;38161;53.020;6.598;2023-02-28T05:08:40;2.40;99.90
52187;DHT22;38161;53.020;6.598;2023-02-28T05:11:07;2.80;99.90
52187;DHT22;38161;53.020;6.598;2023-02-28T05:13:34;2.40;99.90
52187;DHT22;38161;53.020;6.598;2023-02-28T05:16:01;2.30;99.90
52187;DHT22;38161;53.020;6.598;2023-02-28T05:18:27;2.30;99.90
52187;DHT22;38161;53.020;6.598;2023-02-28T05:20:52;2.30;99.90
52187;DHT22;38161;53.020;6.598;2023-02-28T05:23:19;2.70;99.90
52187;DHT22;38161;53.020;6.598;2023-02-28T05:25:46;2.30;99.90
52187;DHT22;38161;53.020;6.598;2023-02-28T05:28:12;2.20;99.90
52187;DHT22;38161;53.020;6.598;2023-02-28T05:30:38;2.20;99.90
52187;DHT22;38161;53.020;6.598;2023-02-28T05:33:04;2.20;99.90
52187;DHT22;38161;53.020;6.598;2023-02-28T05:35:29;2.20;99.90
52187;DHT22;38161;53.020;6.598;2023-02-28T05:37:55;2.10;99.90
52187;DHT22;38161;53.020;6.598;2023-02-28T05:40:21;2.10;99.90
52187;DHT22;38161;53.020;6.598;2023-02-28T05:42:47;2.10;99.90
52187;DHT22;38161;53.020;6.598;2023-02-28T05:45:13;2.10;99.90
52187;DHT22;38161;53.020;6.598;2023-02-28T05:47:39;2.10;99.90
52187;DHT22;38161;53.020;6.598;2023-02-28T05:50:05;2.00;99.90
52187;DHT22;38161;53.020;6.598;2023-02-28T05:52:31;2.10;99.90
52187;DHT22;38161;53.020;6.598;2023-02-28T05:54:57;2.00;99.90
52187;DHT22;38161;53.020;6.598;2023-02-28T05:57:23;2.10;99.90
52187;DHT22;38161;53.020;6.598;2023-02-28T05:59:49;2.00;99.90
52187;DHT22;38161;53.020;6.598;2023-02-28T06:02:16;2.00;99.90
52187;DHT22;38161;53.020;6.598;2023-02-28T06:04:43;2.00;99.90
52187;DHT22;38161;53.020;6.598;2023-02-28T06:07:09;1.90;99.90
52187;DHT22;38161;53.020;6.598;2023-02-28T06:09:35;2.00;99.90
52187;DHT22;38161;53.020;6.598;2023-02-28T06:12:04;2.00;99.90
52187;DHT22;38161;53.020;6.598;2023-02-28T06:14:32;1.90;99.90
52187;DHT22;38161;53.020;6.598;2023-02-28T06:16:59;1.90;99.90
52187;DHT22;38161;53.020;6.598;2023-02-28T06:19:26;2.00;99.90
52187;DHT22;38161;53.020;6.598;2023-02-28T06:21:53;2.20;99.90
52187;DHT22;38161;53.020;6.598;2023-02-28T06:24:20;1.90;99.90
52187;DHT22;38161;53.020;6.598;2023-02-28T06:26:47;1.90;99.90
52187;DHT22;38161;53.020;6.598;2023-02-28T06:29:13;2.00;99.90
52187;DHT22;38161;53.020;6.598;2023-02-28T06:31:45;1.90;99.90
52187;DHT22;38161;53.020;6.598;2023-02-28T06:34:11;2.00;99.90
52187;DHT22;38161;53.020;6.598;2023-02-28T06:36:38;2.00;99.90
52187;DHT22;38161;53.020;6.598;2023-02-28T06:39:04;2.00;99.90
52187;DHT22;38161;53.020;6.598;2023-02-28T06:41:30;2.20;99.90
52187;DHT22;38161;53.020;6.598;2023-02-28T06:43:56;2.00;99.90
52187;DHT22;38161;53.020;6.598;2023-02-28T06:46:23;2.00;99.90
52187;DHT22;38161;53.020;6.598;2023-02-28T06:48:49;2.30;99.90
52187;DHT22;38161;53.020;6.598;2023-02-28T06:51:18;2.10;99.90
52187;DHT22;38161;53.020;6.598;2023-02-28T06:53:46;2.10;99.90
52187;DHT22;38161;53.020;6.598;2023-02-28T06:56:14;2.10;99.90
52187;DHT22;38161;53.020;6.598;2023-02-28T06:58:40;2.10;99.90
52187;DHT22;38161;53.020;6.598;2023-02-28T07:01:07;2.10;99.90
52187;DHT22;38161;53.020;6.598;2023-02-28T07:03:34;2.10;99.90
52187;DHT22;38161;53.020;6.598;2023-02-28T07:06:00;2.20;99.90
52187;DHT22;38161;53.020;6.598;2023-02-28T07:08:26;2.20;99.90
52187;DHT22;38161;53.020;6.598;2023-02-28T07:10:56;2.20;99.90
52187;DHT22;38161;53.020;6.598;2023-02-28T07:13:23;2.30;99.90
52187;DHT22;38161;53.020;6.598;2023-02-28T07:15:59;2.40;99.90
52187;DHT22;38161;53.020;6.598;2023-02-28T07:18:26;2.80;99.90
52187;DHT22;38161;53.020;6.598;2023-02-28T07:20:52;2.40;99.90
52187;DHT22;38161;53.020;6.598;2023-02-28T07:23:18;2.40;99.90
52187;DHT22;38161;53.020;6.598;2023-02-28T07:25:44;2.40;99.90
52187;DHT22;38161;53.020;6.598;2023-02-28T07:28:11;2.50;99.90
52187;DHT22;38161;53.020;6.598;2023-02-28T07:30:37;2.40;99.90
52187;DHT22;38161;53.020;6.598;2023-02-28T07:33:03;2.40;99.90
52187;DHT22;38161;53.020;6.598;2023-02-28T07:35:29;2.80;99.90
52187;DHT22;38161;53.020;6.598;2023-02-28T07:37:57;2.40;99.90
52187;DHT22;38161;53.020;6.598;2023-02-28T07:40:23;2.40;99.90
52187;DHT22;38161;53.020;6.598;2023-02-28T07:42:49;2.40;99.90
52187;DHT22;38161;53.020;6.598;2023-02-28T07:45:15;2.30;99.90
52187;DHT22;38161;53.020;6.598;2023-02-28T07:47:41;2.40;99.90
52187;DHT22;38161;53.020;6.598;2023-02-28T07:50:08;2.30;99.90
52187;DHT22;38161;53.020;6.598;2023-02-28T07:52:36;2.40;99.90
52187;DHT22;38161;53.020;6.598;2023-02-28T07:55:03;2.40;99.90
52187;DHT22;38161;53.020;6.598;2023-02-28T07:57:30;2.40;99.90
52187;DHT22;38161;53.020;6.598;2023-02-28T07:59:55;2.40;99.90
52187;DHT22;38161;53.020;6.598;2023-02-28T08:02:21;2.40;99.90
52187;DHT22;38161;53.020;6.598;2023-02-28T08:04:47;2.40;99.90
52187;DHT22;38161;53.020;6.598;2023-02-28T08:07:15;2.40;99.90
52187;DHT22;38161;53.020;6.598;2023-02-28T08:09:42;2.40;99.90
52187;DHT22;38161;53.020;6.598;2023-02-28T08:12:09;2.40;99.90
52187;DHT22;38161;53.020;6.598;2023-02-28T08:14:35;2.50;99.90
52187;DHT22;38161;53.020;6.598;2023-02-28T08:17:02;2.60;99.90
52187;DHT22;38161;53.020;6.598;2023-02-28T08:19:28;2.60;99.90
52187;DHT22;38161;53.020;6.598;2023-02-28T08:21:54;2.70;99.90
52187;DHT22;38161;53.020;6.598;2023-02-28T08:24:20;2.70;99.90
52187;DHT22;38161;53.020;6.598;2023-02-28T08:26:46;2.70;99.90
52187;DHT22;38161;53.020;6.598;2023-02-28T08:29:12;2.80;99.90
52187;DHT22;38161;53.020;6.598;2023-02-28T08:31:38;3.00;99.90
52187;DHT22;38161;53.020;6.598;2023-02-28T08:34:14;2.80;99.90
52187;DHT22;38161;53.020;6.598;2023-02-28T08:36:41;2.80;99.90
52187;DHT22;38161;53.020;6.598;2023-02-28T08:39:08;2.80;99.90
52187;DHT22;38161;53.020;6.598;2023-02-28T08:41:34;2.90;99.90
52187;DHT22;38161;53.020;6.598;2023-02-28T08:44:00;2.90;99.90
52187;DHT22;38161;53.020;6.598;2023-02-28T08:46:26;3.00;99.90
52187;DHT22;38161;53.020;6.598;2023-02-28T08:48:53;3.00;99.90
52187;DHT22;38161;53.020;6.598;2023-02-28T08:51:19;3.10;99.90
52187;DHT22;38161;53.020;6.598;2023-02-28T08:53:52;3.10;99.90
52187;DHT22;38161;53.020;6.598;2023-02-28T08:56:19;3.20;99.90
52187;DHT22;38161;53.020;6.598;2023-02-28T08:58:45;3.20;99.90
52187;DHT22;38161;53.020;6.598;2023-02-28T09:01:20;3.20;99.90
52187;DHT22;38161;53.020;6.598;2023-02-28T09:03:47;3.30;99.90
52187;DHT22;38161;53.020;6.598;2023-02-28T09:06:16;3.30;99.90
52187;DHT22;38161;53.020;6.598;2023-02-28T09:08:42;3.30;99.90
52187;DHT22;38161;53.020;6.598;2023-02-28T09:11:09;3.40;99.90
52187;DHT22;38161;53.020;6.598;2023-02-28T09:13:35;3.60;99.90
52187;DHT22;38161;53.020;6.598;2023-02-28T09:16:02;3.70;99.90
52187;DHT22;38161;53.020;6.598;2023-02-28T09:18:29;3.90;99.90
52187;DHT22;38161;53.020;6.598;2023-02-28T09:20:55;3.90;99.90
52187;DHT22;38161;53.020;6.598;2023-02-28T09:23:22;4.20;99.90
52187;DHT22;38161;53.020;6.598;2023-02-28T09:25:54;4.70;99.90
52187;DHT22;38161;53.020;6.598;2023-02-28T09:28:20;5.20;99.90
52187;DHT22;38161;53.020;6.598;2023-02-28T09:30:52;5.90;99.90
52187;DHT22;38161;53.020;6.598;2023-02-28T09:33:19;6.70;99.90
52187;DHT22;38161;53.020;6.598;2023-02-28T09:35:47;7.30;99.90
52187;DHT22;38161;53.020;6.598;2023-02-28T09:38:14;7.90;99.90
52187;DHT22;38161;53.020;6.598;2023-02-28T09:40:49;8.00;99.90
52187;DHT22;38161;53.020;6.598;2023-02-28T09:43:17;8.40;99.90
52187;DHT22;38161;53.020;6.598;2023-02-28T09:45:48;8.90;99.90
52187;DHT22;38161;53.020;6.598;2023-02-28T09:48:26;9.30;99.90
52187;DHT22;38161;53.020;6.598;2023-02-28T09:51:00;9.50;99.90
52187;DHT22;38161;53.020;6.598;2023-02-28T09:53:34;9.50;99.90
52187;DHT22;38161;53.020;6.598;2023-02-28T09:56:21;9.90;99.90
52187;DHT22;38161;53.020;6.598;2023-02-28T09:59:01;10.20;99.90
52187;DHT22;38161;53.020;6.598;2023-02-28T10:01:37;10.20;99.90
52187;DHT22;38161;53.020;6.598;2023-02-28T10:06:51;10.00;99.90
52187;DHT22;38161;53.020;6.598;2023-02-28T10:09:25;10.20;99.90
52187;DHT22;38161;53.020;6.598;2023-02-28T10:11:54;10.10;99.90
52187;DHT22;38161;53.020;6.598;2023-02-28T10:14:24;10.30;99.90
52187;DHT22;38161;53.020;6.598;2023-02-28T10:17:26;10.30;99.90
52187;DHT22;38161;53.020;6.598;2023-02-28T10:20:02;10.00;99.90
52187;DHT22;38161;53.020;6.598;2023-02-28T10:22:52;9.80;99.90
52187;DHT22;38161;53.020;6.598;2023-02-28T10:25:22;9.30;99.90
52187;DHT22;38161;53.020;6.598;2023-02-28T10:27:50;9.40;99.90
52187;DHT22;38161;53.020;6.598;2023-02-28T10:30:18;9.80;99.90
52187;DHT22;38161;53.020;6.598;2023-02-28T10:32:50;9.90;99.90
52187;DHT22;38161;53.020;6.598;2023-02-28T10:35:22;9.80;99.90
52187;DHT22;38161;53.020;6.598;2023-02-28T10:37:51;9.70;99.90
52187;DHT22;38161;53.020;6.598;2023-02-28T10:43:17;11.20;99.90
52187;DHT22;38161;53.020;6.598;2023-02-28T10:46:13;12.10;99.90
52187;DHT22;38161;53.020;6.598;2023-02-28T10:48:44;12.50;99.90
52187;DHT22;38161;53.020;6.598;2023-02-28T10:51:12;12.50;99.90
52187;DHT22;38161;53.020;6.598;2023-02-28T10:58:56;13.10;99.90
52187;DHT22;38161;53.020;6.598;2023-02-28T11:01:23;13.20;99.90
52187;DHT22;38161;53.020;6.598;2023-02-28T11:03:50;12.50;99.90
52187;DHT22;38161;53.020;6.598;2023-02-28T11:09:02;11.50;99.90
52187;DHT22;38161;53.020;6.598;2023-02-28T11:11:30;11.40;99.90
52187;DHT22;38161;53.020;6.598;2023-02-28T11:14:07;11.30;99.90
52187;DHT22;38161;53.020;6.598;2023-02-28T11:16:43;10.90;99.90
52187;DHT22;38161;53.020;6.598;2023-02-28T11:19:24;11.60;99.90
52187;DHT22;38161;53.020;6.598;2023-02-28T11:21:58;11.40;99.90
52187;DHT22;38161;53.020;6.598;2023-02-28T11:24:26;11.60;99.90
52187;DHT22;38161;53.020;6.598;2023-02-28T11:26:52;11.50;99.90
52187;DHT22;38161;53.020;6.598;2023-02-28T11:34:35;12.80;99.90
52187;DHT22;38161;53.020;6.598;2023-02-28T11:37:03;12.70;99.90
52187;DHT22;38161;53.020;6.598;2023-02-28T11:39:32;12.50;99.90
52187;DHT22;38161;53.020;6.598;2023-02-28T11:42:11;12.60;99.90
52187;DHT22;38161;53.020;6.598;2023-02-28T11:50:21;13.80;99.90
52187;DHT22;38161;53.020;6.598;2023-02-28T11:52:54;14.30;99.90
52187;DHT22;38161;53.020;6.598;2023-02-28T11:55:31;14.70;99.90
52187;DHT22;38161;53.020;6.598;2023-02-28T12:04:47;14.30;98.50
52187;DHT22;38161;53.020;6.598;2023-02-28T12:10:27;12.40;98.50
52187;DHT22;38161;53.020;6.598;2023-02-28T12:13:16;11.60;99.10
52187;DHT22;38161;53.020;6.598;2023-02-28T12:27:07;10.90;99.90
52187;DHT22;38161;53.020;6.598;2023-02-28T12:30:04;10.30;99.90
52187;DHT22;38161;53.020;6.598;2023-02-28T12:32:36;10.00;99.90
52187;DHT22;38161;53.020;6.598;2023-02-28T12:35:11;10.00;99.90
52187;DHT22;38161;53.020;6.598;2023-02-28T12:43:21;10.30;99.90
52187;DHT22;38161;53.020;6.598;2023-02-28T12:46:00;10.60;99.90
52187;DHT22;38161;53.020;6.598;2023-02-28T12:48:43;10.60;99.90
52187;DHT22;38161;53.020;6.598;2023-02-28T12:51:12;10.40;99.90
52187;DHT22;38161;53.020;6.598;2023-02-28T12:56:47;10.40;99.90
52187;DHT22;38161;53.020;6.598;2023-02-28T13:07:32;10.60;99.90
52187;DHT22;38161;53.020;6.598;2023-02-28T13:10:03;10.70;99.90
52187;DHT22;38161;53.020;6.598;2023-02-28T13:12:30;11.10;99.90
52187;DHT22;38161;53.020;6.598;2023-02-28T13:15:25;11.10;99.90
52187;DHT22;38161;53.020;6.598;2023-02-28T13:17:56;11.00;97.80
52187;DHT22;38161;53.020;6.598;2023-02-28T13:20:28;11.00;99.90
52187;DHT22;38161;53.020;6.598;2023-02-28T13:22:55;10.80;99.90
52187;DHT22;38161;53.020;6.598;2023-02-28T13:27:49;11.10;99.90
52187;DHT22;38161;53.020;6.598;2023-02-28T13:38:52;12.00;99.10
52187;DHT22;38161;53.020;6.598;2023-02-28T13:52:22;11.80;97.70
52187;DHT22;38161;53.020;6.598;2023-02-28T14:05:24;9.30;99.40
52187;DHT22;38161;53.020;6.598;2023-02-28T14:08:03;9.00;99.90
52187;DHT22;38161;53.020;6.598;2023-02-28T14:10:35;9.00;99.90
52187;DHT22;38161;53.020;6.598;2023-02-28T14:13:36;8.80;99.90
52187;DHT22;38161;53.020;6.598;2023-02-28T14:16:00;8.70;99.90
52187;DHT22;38161;53.020;6.598;2023-02-28T14:18:33;8.40;99.90
52187;DHT22;38161;53.020;6.598;2023-02-28T14:21:29;8.20;99.90
52187;DHT22;38161;53.020;6.598;2023-02-28T14:27:22;8.10;99.90
52187;DHT22;38161;53.020;6.598;2023-02-28T14:32:26;8.00;99.90
52187;DHT22;38161;53.020;6.598;2023-02-28T14:37:38;8.00;99.90
52187;DHT22;38161;53.020;6.598;2023-02-28T14:40:11;8.00;99.90
52187;DHT22;38161;53.020;6.598;2023-02-28T14:42:38;8.00;99.90
52187;DHT22;38161;53.020;6.598;2023-02-28T14:45:22;7.90;99.90
52187;DHT22;38161;53.020;6.598;2023-02-28T14:47:50;7.90;99.90
52187;DHT22;38161;53.020;6.598;2023-02-28T14:50:19;7.90;99.90
52187;DHT22;38161;53.020;6.598;2023-02-28T14:52:45;7.90;99.90
52187;DHT22;38161;53.020;6.598;2023-02-28T14:55:17;7.80;99.90
52187;DHT22;38161;53.020;6.598;2023-02-28T14:57:58;7.80;99.90
52187;DHT22;38161;53.020;6.598;2023-02-28T15:00:32;7.70;99.90
52187;DHT22;38161;53.020;6.598;2023-02-28T15:03:00;7.60;99.90
52187;DHT22;38161;53.020;6.598;2023-02-28T15:05:28;7.60;99.90
52187;DHT22;38161;53.020;6.598;2023-02-28T15:08:12;7.60;99.90
52187;DHT22;38161;53.020;6.598;2023-02-28T15:10:45;7.40;99.90
52187;DHT22;38161;53.020;6.598;2023-02-28T15:13:13;7.30;99.90
52187;DHT22;38161;53.020;6.598;2023-02-28T15:18:36;7.20;99.90
52187;DHT22;38161;53.020;6.598;2023-02-28T15:21:10;7.20;99.90
52187;DHT22;38161;53.020;6.598;2023-02-28T15:23:38;7.10;99.90
52187;DHT22;38161;53.020;6.598;2023-02-28T15:26:05;7.10;99.90
52187;DHT22;38161;53.020;6.598;2023-02-28T15:28:32;7.10;99.90
52187;DHT22;38161;53.020;6.598;2023-02-28T15:31:03;7.00;99.90
52187;DHT22;38161;53.020;6.598;2023-02-28T15:33:58;7.00;99.90
52187;DHT22;38161;53.020;6.598;2023-02-28T15:36:30;7.00;99.90
52187;DHT22;38161;53.020;6.598;2023-02-28T15:39:00;7.00;99.90
52187;DHT22;38161;53.020;6.598;2023-02-28T15:41:31;7.00;99.90
52187;DHT22;38161;53.020;6.598;2023-02-28T15:47:02;7.10;99.90
52187;DHT22;38161;53.020;6.598;2023-02-28T15:49:40;7.00;99.90
52187;DHT22;38161;53.020;6.598;2023-02-28T15:52:16;7.00;99.90
52187;DHT22;38161;53.020;6.598;2023-02-28T15:54:44;6.80;99.90
52187;DHT22;38161;53.020;6.598;2023-02-28T15:57:15;6.80;99.90
52187;DHT22;38161;53.020;6.598;2023-02-28T15:59:54;6.70;99.90
52187;DHT22;38161;53.020;6.598;2023-02-28T16:02:36;6.60;99.90
52187;DHT22;38161;53.020;6.598;2023-02-28T16:07:35;6.30;99.90
52187;DHT22;38161;53.020;6.598;2023-02-28T16:10:01;6.10;99.90
52187;DHT22;38161;53.020;6.598;2023-02-28T16:12:29;5.80;99.90
52187;DHT22;38161;53.020;6.598;2023-02-28T16:14:57;5.90;99.90
52187;DHT22;38161;53.020;6.598;2023-02-28T16:17:29;5.80;99.90
52187;DHT22;38161;53.020;6.598;2023-02-28T16:19:56;5.70;99.90
52187;DHT22;38161;53.020;6.598;2023-02-28T16:22:23;5.70;99.90
52187;DHT22;38161;53.020;6.598;2023-02-28T16:24:49;5.60;99.90
52187;DHT22;38161;53.020;6.598;2023-02-28T16:27:36;5.50;99.90
52187;DHT22;38161;53.020;6.598;2023-02-28T16:30:04;5.50;99.90
52187;DHT22;38161;53.020;6.598;2023-02-28T16:32:33;5.40;99.90
52187;DHT22;38161;53.020;6.598;2023-02-28T16:35:00;5.40;99.90
52187;DHT22;38161;53.020;6.598;2023-02-28T16:37:27;5.40;99.90
52187;DHT22;38161;53.020;6.598;2023-02-28T16:39:53;5.40;99.90
52187;DHT22;38161;53.020;6.598;2023-02-28T16:42:24;5.30;99.90
52187;DHT22;38161;53.020;6.598;2023-02-28T16:44:51;5.30;99.90
52187;DHT22;38161;53.020;6.598;2023-02-28T16:47:18;5.30;99.90
52187;DHT22;38161;53.020;6.598;2023-02-28T16:49:44;5.20;99.90
52187;DHT22;38161;53.020;6.598;2023-02-28T16:52:11;5.20;99.90
52187;DHT22;38161;53.020;6.598;2023-02-28T16:54:38;5.20;99.90
52187;DHT22;38161;53.020;6.598;2023-02-28T16:57:05;5.10;99.90
52187;DHT22;38161;53.020;6.598;2023-02-28T16:59:31;5.10;99.90
52187;DHT22;38161;53.020;6.598;2023-02-28T17:01:58;5.10;99.90
52187;DHT22;38161;53.020;6.598;2023-02-28T17:04:25;5.10;99.90
52187;DHT22;38161;53.020;6.598;2023-02-28T17:06:51;5.00;99.90
52187;DHT22;38161;53.020;6.598;2023-02-28T17:09:22;5.00;99.90
52187;DHT22;38161;53.020;6.598;2023-02-28T17:11:49;4.90;99.90
52187;DHT22;38161;53.020;6.598;2023-02-28T17:14:15;4.80;99.90
52187;DHT22;38161;53.020;6.598;2023-02-28T17:16:42;4.80;99.90
52187;DHT22;38161;53.020;6.598;2023-02-28T17:19:11;4.80;99.90
52187;DHT22;38161;53.020;6.598;2023-02-28T17:21:37;4.70;99.90
52187;DHT22;38161;53.020;6.598;2023-02-28T17:24:03;4.60;99.90
52187;DHT22;38161;53.020;6.598;2023-02-28T17:26:29;4.50;99.90
52187;DHT22;38161;53.020;6.598;2023-02-28T17:28:56;4.50;99.90
52187;DHT22;38161;53.020;6.598;2023-02-28T17:31:24;4.40;99.90
52187;DHT22;38161;53.020;6.598;2023-02-28T17:33:50;4.40;99.90
52187;DHT22;38161;53.020;6.598;2023-02-28T17:36:22;4.30;99.90
52187;DHT22;38161;53.020;6.598;2023-02-28T17:38:50;4.40;99.90
52187;DHT22;38161;53.020;6.598;2023-02-28T17:41:15;4.30;99.90
52187;DHT22;38161;53.020;6.598;2023-02-28T17:43:41;4.30;99.90
52187;DHT22;38161;53.020;6.598;2023-02-28T17:46:21;4.20;99.90
52187;DHT22;38161;53.020;6.598;2023-02-28T17:48:49;4.20;99.90
52187;DHT22;38161;53.020;6.598;2023-02-28T17:51:16;4.10;99.90
52187;DHT22;38161;53.020;6.598;2023-02-28T17:53:42;4.10;99.90
52187;DHT22;38161;53.020;6.598;2023-02-28T17:56:20;4.10;99.90
52187;DHT22;38161;53.020;6.598;2023-02-28T17:58:46;4.10;99.90
52187;DHT22;38161;53.020;6.598;2023-02-28T18:01:12;4.10;99.90
52187;DHT22;38161;53.020;6.598;2023-02-28T18:03:39;4.00;99.90
52187;DHT22;38161;53.020;6.598;2023-02-28T18:06:05;3.90;99.90
52187;DHT22;38161;53.020;6.598;2023-02-28T18:08:32;3.80;99.90
52187;DHT22;38161;53.020;6.598;2023-02-28T18:11:00;3.20;99.90
52187;DHT22;38161;53.020;6.598;2023-02-28T18:13:26;3.70;99.90
52187;DHT22;38161;53.020;6.598;2023-02-28T18:15:53;3.70;99.90
52187;DHT22;38161;53.020;6.598;2023-02-28T18:18:19;3.60;99.90
52187;DHT22;38161;53.020;6.598;2023-02-28T18:20:45;3.50;99.90
52187;DHT22;38161;53.020;6.598;2023-02-28T18:23:13;3.40;99.90
52187;DHT22;38161;53.020;6.598;2023-02-28T18:25:39;3.40;99.90